createdAt,value
2023-03-12T00:04:16.128Z,-3.02
2023-03-12T00:09:18.841Z,-2.95
2023-03-12T00:14:21.548Z,-2.83
2023-03-12T00:19:24.328Z,-2.70
2023-03-12T00:24:27.071Z,-2.59
2023-03-12T00:29:29.790Z,-2.48
2023-03-12T00:34:32.537Z,-2.42
2023-03-12T00:39:35.636Z,-2.34
2023-03-12T00:44:38.689Z,-2.26
2023-03-12T00:49:41.753Z,-2.19
2023-03-12T00:54:44.458Z,-2.13
2023-03-12T00:59:47.342Z,-2.08
2023-03-12T01:04:50.059Z,-2.03
2023-03-12T01:09:52.848Z,-2.00
2023-03-12T01:14:55.656Z,-1.94
2023-03-12T01:19:58.672Z,-1.89
2023-03-12T01:25:01.388Z,-1.82
2023-03-12T01:30:06.023Z,-1.78
2023-03-12T01:35:09.341Z,-1.71
2023-03-12T01:40:20.905Z,-1.66
2023-03-12T01:45:58.079Z,-1.59
2023-03-12T01:51:02.651Z,-1.55
2023-03-12T01:56:08.639Z,-1.48
2023-03-12T02:01:11.463Z,-1.42
2023-03-12T02:06:15.919Z,-1.37
2023-03-12T02:11:18.739Z,-1.32
2023-03-12T02:16:21.554Z,-1.29
2023-03-12T02:21:27.355Z,-1.27
2023-03-12T02:26:31.237Z,-1.25
2023-03-12T02:31:41.089Z,-1.26
2023-03-12T02:36:43.920Z,-1.30
2023-03-12T02:41:53.814Z,-1.35
2023-03-12T02:46:59.295Z,-1.36
2023-03-12T02:52:02.385Z,-1.34
2023-03-12T02:57:05.269Z,-1.33
2023-03-12T03:02:09.729Z,-1.38
2023-03-12T03:07:12.642Z,-1.44
2023-03-12T03:12:15.438Z,-1.48
2023-03-12T03:17:18.398Z,-1.46
2023-03-12T03:22:22.791Z,-1.43
2023-03-12T03:27:25.691Z,-1.39
2023-03-12T03:32:28.753Z,-1.41
2023-03-12T03:37:31.514Z,-1.43
2023-03-12T03:42:34.297Z,-1.44
2023-03-12T03:47:37.128Z,-1.40
2023-03-12T03:52:39.837Z,-1.38
2023-03-12T03:57:42.538Z,-1.39
2023-03-12T04:02:45.491Z,-1.42
2023-03-12T04:07:48.527Z,-1.45
2023-03-12T04:12:52.988Z,-1.47
2023-03-12T04:17:55.887Z,-1.57
2023-03-12T04:22:58.722Z,-1.69
2023-03-12T04:28:02.080Z,-1.78
2023-03-12T04:33:06.096Z,-1.87
2023-03-12T04:38:08.807Z,-1.92
2023-03-12T04:43:11.654Z,-1.98
2023-03-12T04:48:14.492Z,-2.06
2023-03-12T04:53:17.529Z,-2.16
2023-03-12T04:58:20.805Z,-2.23
2023-03-12T05:03:23.517Z,-2.29
2023-03-12T05:08:26.312Z,-2.27
2023-03-12T05:13:29.025Z,-2.27
2023-03-12T05:18:31.718Z,-2.27
2023-03-12T05:23:36.044Z,-2.24
2023-03-12T05:28:38.847Z,-2.21
2023-03-12T05:33:42.004Z,-2.18
2023-03-12T05:38:45.026Z,-2.20
2023-03-12T05:43:48.549Z,-2.25
2023-03-12T05:48:51.599Z,-2.28
2023-03-12T05:53:54.371Z,-2.29
2023-03-12T05:58:57.098Z,-2.25
2023-03-12T06:03:59.937Z,-2.19
2023-03-12T06:09:04.726Z,-2.09
2023-03-12T06:14:07.603Z,-2.03
2023-03-12T06:19:14.139Z,-1.89
2023-03-12T06:24:16.913Z,-1.77
2023-03-12T06:29:19.597Z,-1.70
2023-03-12T06:34:22.360Z,-1.60
2023-03-12T06:39:25.419Z,-1.59
2023-03-12T06:44:28.154Z,-1.48
2023-03-12T06:49:33.381Z,-1.38
2023-03-12T06:54:36.154Z,-1.22
2023-03-12T06:59:38.831Z,-1.09
2023-03-12T07:04:41.541Z,-1.09
2023-03-12T07:09:44.496Z,-0.94
2023-03-12T07:14:47.234Z,-0.54
2023-03-12T07:19:50.110Z,-0.08
2023-03-12T07:24:52.901Z,0.02
2023-03-12T07:29:55.587Z,-0.18
2023-03-12T07:34:58.397Z,-0.34
2023-03-12T07:40:01.198Z,-0.16
2023-03-12T07:45:04.599Z,0.07
2023-03-12T07:50:07.882Z,0.08
2023-03-12T07:55:10.929Z,0.08
2023-03-12T08:00:15.427Z,0.00
2023-03-12T08:05:18.877Z,-0.04
2023-03-12T08:10:22.512Z,0.15
2023-03-12T08:15:25.613Z,0.52
2023-03-12T08:20:28.702Z,0.93
2023-03-12T08:25:31.648Z,0.87
2023-03-12T08:30:34.404Z,0.89
2023-03-12T08:35:37.550Z,1.04
2023-03-12T08:40:40.532Z,0.99
2023-03-12T08:45:43.358Z,1.00
2023-03-12T08:50:46.036Z,1.06
2023-03-12T08:55:49.096Z,1.11
2023-03-12T09:00:52.673Z,1.09
2023-03-12T09:06:16.803Z,1.23
2023-03-12T09:11:19.671Z,0.90
2023-03-12T09:16:22.421Z,0.76
2023-03-12T09:21:25.267Z,1.07
2023-03-12T09:26:28.073Z,1.48
2023-03-12T09:31:30.871Z,1.68
2023-03-12T09:36:34.349Z,1.99
2023-03-12T09:41:40.549Z,2.20
2023-03-12T09:46:51.417Z,2.12
2023-03-12T09:51:57.124Z,2.19
2023-03-12T09:57:04.330Z,2.32
2023-03-12T10:02:30.249Z,2.44
2023-03-12T10:07:39.834Z,2.63
2023-03-12T10:12:54.500Z,2.77
2023-03-12T10:18:10.748Z,2.87
2023-03-12T10:23:52.027Z,2.35
2023-03-12T10:29:06.298Z,1.52
2023-03-12T10:34:19.159Z,0.30
2023-03-12T10:39:22.460Z,0.07
2023-03-12T10:44:25.698Z,0.18
2023-03-12T10:49:32.225Z,0.29
2023-03-12T10:54:40.891Z,0.71
2023-03-12T10:59:47.618Z,0.91
2023-03-12T11:04:52.181Z,0.72
2023-03-12T11:10:07.241Z,0.66
2023-03-12T11:15:22.192Z,0.92
2023-03-12T11:20:28.021Z,1.46
2023-03-12T11:25:31.912Z,2.07
2023-03-12T11:30:41.044Z,2.39
2023-03-12T11:35:52.551Z,2.64
2023-03-12T11:41:08.659Z,2.20
2023-03-12T11:46:50.380Z,1.71
2023-03-12T11:52:12.824Z,1.89
2023-03-12T11:57:46.286Z,2.14
2023-03-12T12:03:30.949Z,2.09
2023-03-12T12:08:55.389Z,1.79
2023-03-12T12:14:11.986Z,1.53
2023-03-12T12:19:34.128Z,1.40
2023-03-12T12:24:51.212Z,1.46
2023-03-12T12:30:16.247Z,1.44
2023-03-12T12:35:27.810Z,1.46
2023-03-12T12:40:45.239Z,1.55
2023-03-12T12:45:52.581Z,1.55
2023-03-12T12:50:55.863Z,1.60
2023-03-12T12:55:58.455Z,1.76
2023-03-12T13:01:02.637Z,2.14
2023-03-12T13:06:07.232Z,2.46
2023-03-12T13:11:19.464Z,2.50
2023-03-12T13:16:34.244Z,2.65
2023-03-12T13:21:58.857Z,2.68
2023-03-12T13:27:19.340Z,2.56
2023-03-12T13:32:34.599Z,2.47
2023-03-12T13:37:46.780Z,2.33
2023-03-12T13:43:05.842Z,2.07
2023-03-12T13:48:16.407Z,1.72
2023-03-12T13:53:32.695Z,1.52
2023-03-12T13:59:09.661Z,1.24
2023-03-12T14:04:20.756Z,1.06
2023-03-12T14:09:32.785Z,1.11
2023-03-12T14:15:05.493Z,1.41
2023-03-12T14:20:11.335Z,1.51
2023-03-12T14:25:36.167Z,1.62
2023-03-12T14:30:49.778Z,1.82
2023-03-12T14:36:07.829Z,2.02
2023-03-12T14:41:39.840Z,1.96
2023-03-12T14:46:49.139Z,1.93
2023-03-12T14:51:51.938Z,1.99
2023-03-12T14:56:54.731Z,1.89
2023-03-12T15:02:02.250Z,1.93
2023-03-12T15:07:10.746Z,2.45
2023-03-12T15:12:35.078Z,2.69
2023-03-12T15:17:38.086Z,2.20
2023-03-12T15:22:41.564Z,1.88
2023-03-12T15:27:44.396Z,1.85
2023-03-12T15:33:22.119Z,1.73
2023-03-12T15:38:25.636Z,1.36
2023-03-12T15:43:28.505Z,1.04
2023-03-12T15:48:35.061Z,0.84
2023-03-12T15:53:37.825Z,0.68
2023-03-12T15:58:42.075Z,0.52
2023-03-12T16:03:46.090Z,0.36
2023-03-12T16:08:53.109Z,0.12
2023-03-12T16:14:05.118Z,-0.12
2023-03-12T16:19:20.394Z,-0.35
2023-03-12T16:24:23.443Z,-0.58
2023-03-12T16:29:35.646Z,-0.80
2023-03-12T16:34:38.373Z,-1.06
2023-03-12T16:39:41.245Z,-1.27
2023-03-12T16:44:46.348Z,-1.47
2023-03-12T16:49:49.290Z,-1.70
2023-03-12T16:54:53.023Z,-1.94
2023-03-12T16:59:55.746Z,-2.20
2023-03-12T17:04:58.714Z,-2.46
2023-03-12T17:10:01.495Z,-2.73
2023-03-12T17:15:25.923Z,-3.01
2023-03-12T17:20:34.916Z,-3.31
2023-03-12T17:25:40.761Z,-3.54
2023-03-12T17:30:44.287Z,-3.70
2023-03-12T17:35:58.866Z,-3.79
2023-03-12T17:41:02.173Z,-3.84
2023-03-12T17:46:08.802Z,-3.86
2023-03-12T17:51:11.739Z,-3.85
2023-03-12T17:56:17.991Z,-3.85
2023-03-12T18:01:21.080Z,-3.84
2023-03-12T18:06:25.082Z,-3.80
2023-03-12T18:11:28.097Z,-3.70
2023-03-12T18:16:30.909Z,-3.50
2023-03-12T18:21:33.742Z,-3.29
2023-03-12T18:26:36.499Z,-3.13
2023-03-12T18:31:39.288Z,-3.07
2023-03-12T18:36:42.184Z,-3.12
2023-03-12T18:41:44.995Z,-3.23
2023-03-12T18:46:49.045Z,-3.36
2023-03-12T18:51:55.962Z,-3.50
2023-03-12T18:56:58.749Z,-3.62
2023-03-12T19:02:01.554Z,-3.75
2023-03-12T19:07:05.173Z,-3.85
2023-03-12T19:12:07.979Z,-3.96
2023-03-12T19:17:10.673Z,-4.06
2023-03-12T19:22:13.472Z,-4.14
2023-03-12T19:27:16.200Z,-4.18
2023-03-12T19:32:18.933Z,-4.13
2023-03-12T19:37:22.570Z,-3.99
2023-03-12T19:42:25.423Z,-3.84
2023-03-12T19:47:33.126Z,-3.80
2023-03-12T19:52:35.838Z,-3.79
2023-03-12T19:57:39.057Z,-3.78
2023-03-12T20:02:42.200Z,-3.79
2023-03-12T20:07:44.987Z,-3.81
2023-03-12T20:12:47.706Z,-3.82
2023-03-12T20:17:50.467Z,-3.82
2023-03-12T20:22:53.213Z,-3.82
2023-03-12T20:27:57.424Z,-3.82
2023-03-12T20:33:00.843Z,-3.82
2023-03-12T20:38:05.045Z,-3.76
2023-03-12T20:43:07.742Z,-3.63
2023-03-12T20:48:10.925Z,-3.52
2023-03-12T20:53:13.762Z,-3.46
2023-03-12T20:58:17.141Z,-3.46
2023-03-12T21:03:20.560Z,-3.53
2023-03-12T21:08:24.037Z,-3.63
2023-03-12T21:13:26.853Z,-3.73
2023-03-12T21:18:29.587Z,-3.79
2023-03-12T21:23:33.405Z,-3.74
2023-03-12T21:28:36.516Z,-3.64
2023-03-12T21:33:39.287Z,-3.56
2023-03-12T21:38:43.087Z,-3.53
2023-03-12T21:43:47.248Z,-3.53
2023-03-12T21:48:50.324Z,-3.56
2023-03-12T21:53:57.680Z,-3.63
2023-03-12T21:59:00.553Z,-3.64
2023-03-12T22:04:05.579Z,-3.65
2023-03-12T22:09:08.829Z,-3.64
2023-03-12T22:14:11.525Z,-3.67
2023-03-12T22:19:14.642Z,-3.71
2023-03-12T22:24:17.392Z,-3.68
2023-03-12T22:29:20.184Z,-3.55
2023-03-12T22:34:22.930Z,-3.43
2023-03-12T22:39:25.665Z,-3.37
2023-03-12T22:44:28.364Z,-3.38
2023-03-12T22:49:31.063Z,-3.46
2023-03-12T22:54:33.871Z,-3.55
2023-03-12T22:59:38.264Z,-3.61
2023-03-12T23:04:41.069Z,-3.67
2023-03-12T23:09:44.988Z,-3.72
2023-03-12T23:14:47.803Z,-3.69
2023-03-12T23:19:50.517Z,-3.62
2023-03-12T23:24:53.327Z,-3.60
2023-03-12T23:29:56.068Z,-3.57
2023-03-12T23:34:58.803Z,-3.53
2023-03-12T23:40:01.755Z,-3.54
2023-03-12T23:45:05.086Z,-3.57
2023-03-12T23:50:08.392Z,-3.58
2023-03-12T23:55:11.090Z,-3.59
